Time;durP1;ratioP1;P1;durP2;ratioP2;P2;SDS_P1;SDS_P2;PMS_P1;PMS_P2;Temp;Humidity;BMP_temperature;BMP_pressure;BME280_temperature;BME280_humidity;BME280_pressure;Samples;Min_cycle;Max_cycle;Signal;HPM_P1;HPM_P2
2022/05/13 00:00:44;;;;;;;4.50;2.33;;;;;;;21.52;60.19;100408.66;5576657;31;32818;-68
2022/05/13 00:03:49;;;;;;;3.95;2.40;;;;;;;21.42;61.18;100413.81;5576877;31;33002;-67
2022/05/13 00:06:52;;;;;;;4.43;2.30;;;;;;;21.60;58.65;100410.13;5590559;31;35225;-67
2022/05/13 00:09:57;;;;;;;4.57;2.30;;;;;;;21.58;59.64;100412.28;5589937;31;32959;-68
2022/05/13 00:13:00;;;;;;;5.25;2.08;;;;;;;21.56;59.52;100414.38;5589964;31;33259;-67
2022/05/13 00:16:04;;;;;;;3.17;1.87;;;;;;;21.58;59.65;100418.50;5589842;31;32540;-67
2022/05/13 00:19:10;;;;;;;2.90;2.00;;;;;;;21.62;58.97;100424.22;5590471;31;34632;-67
2022/05/13 00:22:14;;;;;;;3.03;1.77;;;;;;;21.67;58.18;100418.94;5576839;31;32530;-66
2022/05/13 00:25:24;;;;;;;3.55;1.98;;;;;;;21.89;55.50;100424.47;5590769;31;34636;-67
2022/05/13 00:28:26;;;;;;;2.70;1.83;;;;;;;22.10;55.56;100435.47;5590528;31;34126;-67
2022/05/13 00:31:29;;;;;;;3.30;1.80;;;;;;;22.09;55.29;100438.41;5589737;31;34079;-67
2022/05/13 00:34:33;;;;;;;3.35;1.67;;;;;;;22.03;55.06;100433.97;5590214;31;34523;-66
2022/05/13 00:37:36;;;;;;;2.83;1.90;;;;;;;22.07;54.58;100430.53;5590288;31;35234;-67
2022/05/13 00:40:40;;;;;;;4.35;1.90;;;;;;;22.07;54.57;100427.84;5589352;31;33691;-67
2022/05/13 00:43:52;;;;;;;4.15;2.00;;;;;;;22.09;54.41;100430.31;5590225;31;33908;-67
2022/05/13 00:46:54;;;;;;;2.97;1.87;;;;;;;22.07;54.50;100435.94;5589192;31;32551;-67
2022/05/13 00:50:00;;;;;;;3.70;1.70;;;;;;;22.12;54.21;100443.34;5590157;31;33910;-67
2022/05/13 00:53:03;;;;;;;2.53;1.62;;;;;;;22.06;54.38;100433.50;5576644;31;33427;-67
2022/05/13 00:56:06;;;;;;;2.70;1.62;;;;;;;22.01;54.50;100436.13;5589452;31;32872;-66
2022/05/13 00:59:13;;;;;;;2.15;1.42;;;;;;;22.04;54.57;100455.34;5590603;31;34087;-66
2022/05/13 01:02:16;;;;;;;2.10;1.50;;;;;;;21.94;54.13;100462.44;5590142;31;34577;-67
2022/05/13 01:05:20;;;;;;;2.78;1.70;;;;;;;21.87;54.12;100454.47;5590017;31;34271;-66
2022/05/13 01:08:24;;;;;;;2.30;1.45;;;;;;;21.93;53.85;100447.28;5590052;31;34079;-67
2022/05/13 01:11:30;;;;;;;4.12;2.05;;;;;;;21.86;54.15;100439.31;5589355;31;34068;-67
2022/05/13 01:14:37;;;;;;;2.58;1.60;;;;;;;21.81;54.04;100433.81;5590062;31;34588;-67
2022/05/13 01:21:05;;;;;;;4.80;1.70;;;;;;;21.67;56.78;100427.88;5590260;31;33955;-67
2022/05/13 01:24:08;;;;;;;4.62;1.60;;;;;;;21.56;56.46;100434.09;5589887;31;34111;-67
2022/05/13 01:27:10;;;;;;;1.62;1.48;;;;;;;21.65;54.50;100440.78;5589066;31;32436;-67
2022/05/13 01:30:17;;;;;;;2.80;1.30;;;;;;;21.74;53.64;100438.50;5589105;31;32351;-67
2022/05/13 01:33:21;;;;;;;2.35;1.45;;;;;;;21.63;54.96;100431.28;5589880;31;34379;-67
2022/05/13 01:36:24;;;;;;;1.40;1.30;;;;;;;21.63;54.20;100428.59;5589699;31;34226;-67
2022/05/13 01:39:27;;;;;;;2.05;1.60;;;;;;;21.55;54.66;100415.44;5589150;31;32616;-65
2022/05/13 01:42:31;;;;;;;2.42;1.30;;;;;;;21.61;54.87;100433.37;5588684;31;32357;-66
2022/05/13 01:45:34;;;;;;;3.72;1.50;;;;;;;21.60;54.20;100429.03;5589832;31;34023;-67
2022/05/13 01:48:38;;;;;;;3.55;1.20;;;;;;;21.66;53.67;100420.81;5588788;31;32603;-66
2022/05/13 01:51:40;;;;;;;2.20;1.50;;;;;;;21.78;53.68;100433.47;5589238;31;33984;-68
2022/05/13 01:54:44;;;;;;;2.28;1.08;;;;;;;21.59;54.25;100432.81;5589647;31;34717;-67
2022/05/13 01:57:47;;;;;;;3.87;1.30;;;;;;;21.44;55.22;100424.41;5589574;31;34730;-67
2022/05/13 02:00:55;;;;;;;2.15;1.40;;;;;;;21.41;54.72;100428.38;5589571;31;33932;-67
2022/05/13 02:03:58;;;;;;;2.22;1.40;;;;;;;21.48;54.43;100422.84;5575652;31;32366;-67
2022/05/13 02:07:01;;;;;;;1.48;1.15;;;;;;;21.36;55.11;100430.97;5588401;31;34696;-66
2022/05/13 02:10:04;;;;;;;2.42;1.25;;;;;;;21.30;55.61;100429.22;5589826;31;34392;-67
2022/05/13 02:13:06;;;;;;;1.83;1.15;;;;;;;21.23;56.15;100423.13;5589577;31;34499;-67
2022/05/13 02:16:11;;;;;;;4.62;1.17;;;;;;;21.35;55.66;100423.91;5589484;31;33915;-67
2022/05/13 02:19:13;;;;;;;3.40;1.37;;;;;;;21.11;57.05;100419.56;5589354;31;34001;-67
2022/05/13 02:22:16;;;;;;;1.48;1.20;;;;;;;20.97;58.25;100421.69;5589445;31;35385;-67
2022/05/13 02:25:19;;;;;;;2.87;1.37;;;;;;;20.91;59.16;100429.91;5589368;31;33879;-66
2022/05/13 02:28:21;;;;;;;2.47;1.35;;;;;;;20.87;59.58;100428.72;5588063;31;32723;-67
2022/05/13 02:31:24;;;;;;;2.00;1.40;;;;;;;20.82;60.21;100421.34;5588541;31;33972;-67
2022/05/13 02:34:27;;;;;;;2.25;1.48;;;;;;;20.76;60.87;100425.81;5589201;31;33999;-67
2022/05/13 02:37:29;;;;;;;1.92;1.27;;;;;;;20.67;61.44;100418.28;5588977;31;34732;-65
2022/05/13 02:43:55;;;;;;;3.05;1.25;;;;;;;20.61;62.35;100413.81;5588351;31;32850;-66
2022/05/13 02:46:58;;;;;;;1.70;1.35;;;;;;;20.63;62.37;100411.69;5588389;31;34694;-66
2022/05/13 02:50:19;;;;;;;1.95;1.50;;;;;;;20.62;62.42;100413.56;5588031;31;32443;-67
2022/05/13 02:53:22;;;;;;;2.78;1.40;;;;;;;20.68;62.40;100406.44;5588211;31;34645;-67
2022/05/13 02:56:25;;;;;;;2.15;1.40;;;;;;;20.62;62.77;100413.56;5588837;31;34017;-67
2022/05/13 02:59:28;;;;;;;3.08;1.90;;;;;;;20.60;63.00;100420.28;5588204;31;32740;-66
2022/05/13 03:02:30;;;;;;;2.08;1.30;;;;;;;20.64;63.07;100430.34;5588773;31;35174;-67
2022/05/13 03:05:34;;;;;;;3.30;1.40;;;;;;;20.57;63.02;100418.88;5588729;31;33920;-67
2022/05/13 03:08:36;;;;;;;2.78;1.30;;;;;;;20.66;63.01;100413.94;5574571;31;32845;-67
2022/05/13 03:11:39;;;;;;;1.58;1.30;;;;;;;20.56;63.09;100436.09;5588607;31;34573;-67
2022/05/13 03:14:42;;;;;;;1.80;1.40;;;;;;;20.53;63.09;100449.19;5588639;31;34021;-67
2022/05/13 03:17:45;;;;;;;1.65;1.30;;;;;;;20.53;63.13;100452.72;5588469;31;34032;-67
2022/05/13 03:20:48;;;;;;;2.00;1.27;;;;;;;20.62;62.34;100464.00;5588587;31;34303;-68
2022/05/13 03:23:51;;;;;;;1.92;1.40;;;;;;;20.61;62.11;100447.00;5587623;31;33909;-66
2022/05/13 03:26:53;;;;;;;2.33;1.50;;;;;;;20.62;61.75;100466.69;5588226;31;34625;-68
2022/05/13 03:29:56;;;;;;;1.40;1.12;;;;;;;20.70;60.74;100472.56;5588198;31;33857;-67
2022/05/13 03:32:59;;;;;;;1.70;1.40;;;;;;;20.71;60.53;100470.69;5587485;31;33427;-67
2022/05/13 03:36:02;;;;;;;1.98;1.37;;;;;;;20.72;60.31;100481.22;5588142;31;34342;-67
2022/05/13 03:39:04;;;;;;;2.05;1.45;;;;;;;20.68;60.51;100474.66;5587238;31;34175;-67
2022/05/13 03:42:07;;;;;;;1.52;1.20;;;;;;;20.63;60.46;100474.53;5587123;31;32869;-67
2022/05/13 03:45:12;;;;;;;3.97;1.50;;;;;;;20.65;59.71;100483.22;5588096;31;35219;-67
2022/05/13 03:48:14;;;;;;;1.50;1.40;;;;;;;20.68;60.21;100469.25;5587882;31;34576;-67
2022/05/13 03:51:17;;;;;;;1.40;1.20;;;;;;;20.72;59.75;100488.53;5586757;31;33724;-67
2022/05/13 03:54:20;;;;;;;1.65;1.30;;;;;;;20.67;59.74;100485.69;5587782;31;34710;-67
2022/05/13 03:57:22;;;;;;;2.30;1.40;;;;;;;20.67;60.29;100491.88;5587786;31;33956;-67
2022/05/13 04:00:27;;;;;;;2.65;1.50;;;;;;;20.66;60.15;100505.63;5587674;31;33896;-67
2022/05/13 04:03:29;;;;;;;1.70;1.25;;;;;;;20.68;60.35;100495.41;5587743;31;33903;-66
2022/05/13 04:09:54;;;;;;;2.58;1.40;;;;;;;20.68;61.10;100506.19;5590416;31;34179;-66
2022/05/13 04:16:18;;;;;;;4.18;1.70;;;;;;;20.61;62.53;100494.69;5589822;31;35853;-65
2022/05/13 04:19:21;;;;;;;8.30;1.85;;;;;;;20.40;64.20;100506.81;5589437;31;32958;-66
2022/05/13 04:22:27;;;;;;;5.28;1.92;;;;;;;20.31;65.92;100511.69;5576827;31;36093;-66
2022/05/13 04:25:30;;;;;;;3.10;1.85;;;;;;;19.95;68.89;100500.94;5589758;31;32283;-66
2022/05/13 04:28:33;;;;;;;5.75;1.98;;;;;;;19.76;70.69;100497.44;5589267;31;32797;-66
2022/05/13 04:31:38;;;;;;;2.90;1.85;;;;;;;19.64;71.75;100504.63;5589701;31;32674;-66
2022/05/13 04:34:41;;;;;;;2.72;1.90;;;;;;;19.77;72.18;100509.84;5589279;31;34289;-67
2022/05/13 04:37:44;;;;;;;3.17;1.80;;;;;;;19.58;73.36;100502.00;5590184;31;33963;-67
2022/05/13 04:40:47;;;;;;;3.65;2.00;;;;;;;19.67;73.18;100514.09;5589191;31;32712;-67
2022/05/13 04:43:50;;;;;;;2.50;1.80;;;;;;;19.81;72.72;100524.50;5589443;31;34701;-66
2022/05/13 04:46:53;;;;;;;12.05;2.22;;;;;;;19.79;73.23;100526.62;5589778;31;32651;-67
2022/05/13 04:49:56;;;;;;;6.93;2.30;;;;;;;19.84;73.08;100513.31;5576170;31;33147;-68
2022/05/13 04:52:59;;;;;;;4.25;2.12;;;;;;;19.87;72.54;100512.84;5589267;31;32695;-67
2022/05/13 04:56:03;;;;;;;3.37;2.17;;;;;;;19.81;72.97;100521.81;5589413;31;33019;-67
2022/05/13 04:59:06;;;;;;;6.43;1.65;;;;;;;19.88;72.98;100519.88;5589916;31;33955;-68
2022/05/13 05:02:09;;;;;;;3.90;1.90;;;;;;;20.03;73.25;100524.87;5589028;31;34096;-67
2022/05/13 05:05:12;;;;;;;6.03;2.03;;;;;;;20.15;71.39;100520.38;5589606;31;34249;-67
2022/05/13 05:08:16;;;;;;;8.25;2.42;;;;;;;19.92;72.06;100534.53;5589234;31;33938;-67
2022/05/13 05:11:20;;;;;;;4.78;1.80;;;;;;;20.05;71.60;100541.63;5576181;31;33622;-67
2022/05/13 05:14:22;;;;;;;4.57;2.03;;;;;;;20.11;70.61;100548.00;5589946;31;34710;-67
2022/05/13 05:17:25;;;;;;;3.58;2.00;;;;;;;20.22;70.45;100552.63;5588431;31;32634;-67
2022/05/13 05:20:28;;;;;;;6.85;2.15;;;;;;;20.28;70.39;100543.62;5589774;31;34095;-67
2022/05/13 05:23:35;;;;;;;3.12;1.83;;;;;;;20.60;69.44;100547.78;5589572;31;34002;-67
2022/05/13 05:26:37;;;;;;;3.47;1.62;;;;;;;20.52;69.39;100553.50;5588244;31;33974;-67
2022/05/13 05:29:42;;;;;;;2.40;1.70;;;;;;;20.54;69.44;100545.16;5589318;31;34092;-67
2022/05/13 05:32:45;;;;;;;3.37;1.90;;;;;;;20.32;69.72;100552.94;5589288;31;34782;-66
2022/05/13 05:35:48;;;;;;;5.40;2.15;;;;;;;20.50;68.46;100560.16;5589528;31;34633;-67
2022/05/13 05:38:51;;;;;;;2.83;1.87;;;;;;;20.56;69.02;100559.25;5589464;31;35127;-68
2022/05/13 05:41:58;;;;;;;3.97;1.90;;;;;;;20.81;67.92;100557.22;5588258;31;33243;-68
2022/05/13 05:45:01;;;;;;;2.72;1.83;;;;;;;20.75;68.66;100566.22;5588584;31;32561;-67
2022/05/13 05:48:05;;;;;;;6.32;2.00;;;;;;;20.91;67.53;100564.75;5588447;31;32738;-66
2022/05/13 05:51:08;;;;;;;4.37;1.80;;;;;;;21.01;66.88;100567.72;5588688;31;33876;-68
2022/05/13 05:57:32;;;;;;;2.78;1.50;;;;;;;21.41;65.25;100571.44;5588224;31;33090;-67
2022/05/13 06:00:39;;;;;;;3.08;1.58;;;;;;;21.84;63.08;100573.75;5588140;31;32649;-68
2022/05/13 06:03:42;;;;;;;4.15;1.70;;;;;;;21.83;61.85;100569.44;5589134;31;33935;-67
2022/05/13 06:06:44;;;;;;;2.62;1.65;;;;;;;22.31;60.57;100574.53;5588450;31;33900;-68
2022/05/13 06:09:47;;;;;;;2.87;1.62;;;;;;;22.19;60.83;100584.53;5588323;31;32346;-67
2022/05/13 06:12:50;;;;;;;1.92;1.20;;;;;;;21.99;60.34;100581.41;5588367;31;32681;-67
2022/05/13 06:15:53;;;;;;;3.40;1.40;;;;;;;21.81;60.57;100582.34;5588653;31;33967;-67
2022/05/13 06:19:00;;;;;;;3.28;1.35;;;;;;;21.86;60.78;100589.75;5588125;31;33153;-67
2022/05/13 06:22:05;;;;;;;3.28;1.67;;;;;;;21.92;60.67;100580.69;5587847;31;32736;-67
2022/05/13 06:25:10;;;;;;;4.65;1.48;;;;;;;22.12;60.99;100588.44;5587776;31;33791;-67
2022/05/13 06:28:13;;;;;;;3.95;1.40;;;;;;;22.15;60.15;100588.78;5586523;31;34420;-68
2022/05/13 06:31:18;;;;;;;6.40;1.30;;;;;;;21.94;60.56;100584.00;5587840;31;32432;-67
2022/05/13 06:34:22;;;;;;;4.22;1.42;;;;;;;22.35;59.58;100586.50;5588800;31;34868;-67
2022/05/13 06:37:25;;;;;;;4.25;1.70;;;;;;;22.64;57.51;100575.69;5587785;31;32686;-67
2022/05/13 06:40:28;;;;;;;2.20;1.25;;;;;;;22.95;56.66;100577.91;5588013;31;33283;-67
2022/05/13 06:43:31;;;;;;;3.42;1.33;;;;;;;23.15;55.00;100578.25;5587984;31;34224;-68
2022/05/13 06:46:37;;;;;;;2.05;1.10;;;;;;;23.37;54.03;100583.75;5588127;31;33287;-68
2022/05/13 06:49:40;;;;;;;4.15;1.52;;;;;;;23.04;52.93;100583.75;5587918;31;35246;-67
2022/05/13 06:52:45;;;;;;;1.92;1.10;;;;;;;23.33;52.05;100578.00;5587842;31;33231;-68
2022/05/13 06:55:48;;;;;;;1.40;1.00;;;;;;;22.75;53.21;100577.56;5587530;31;33006;-67
2022/05/13 06:58:50;;;;;;;2.22;1.27;;;;;;;22.54;53.29;100576.31;5588061;31;33645;-67
2022/05/13 07:01:53;;;;;;;2.78;1.20;;;;;;;22.29;54.31;100581.22;5588334;31;34698;-68
2022/05/13 07:04:56;;;;;;;2.28;1.37;;;;;;;22.27;54.42;100588.75;5588301;31;34575;-69
2022/05/13 07:07:59;;;;;;;3.58;1.20;;;;;;;22.19;54.45;100589.13;5588063;31;33920;-68
2022/05/13 07:11:02;;;;;;;2.40;1.23;;;;;;;22.37;54.31;100600.59;5588303;31;33998;-67
2022/05/13 07:14:04;;;;;;;1.45;1.10;;;;;;;22.06;54.81;100596.44;5587813;31;35336;-67
2022/05/13 07:17:08;;;;;;;5.20;1.30;;;;;;;22.46;54.63;100604.53;5587530;31;33385;-67
2022/05/13 07:20:13;;;;;;;4.35;1.33;;;;;;;22.49;54.06;100603.25;5587399;31;32376;-68
2022/05/13 07:23:16;;;;;;;1.95;1.23;;;;;;;22.87;52.93;100597.25;5587861;31;34712;-67
2022/05/13 07:26:19;;;;;;;2.58;1.05;;;;;;;22.92;51.97;100600.88;5587507;31;34192;-68
2022/05/13 07:29:22;;;;;;;1.87;1.20;;;;;;;23.16;51.65;100589.91;5587096;31;34721;-67
2022/05/13 07:32:24;;;;;;;2.97;1.30;;;;;;;23.48;49.85;100592.91;5587085;31;33286;-68
2022/05/13 07:35:27;;;;;;;3.53;1.90;;;;;;;23.95;48.77;100588.72;5587374;31;32462;-68
2022/05/13 07:38:31;;;;;;;2.15;1.17;;;;;;;24.64;46.69;100592.56;5588045;31;34681;-68
2022/05/13 07:41:34;;;;;;;1.35;1.00;;;;;;;25.27;45.15;100587.50;5590775;31;34638;-69
2022/05/13 07:44:37;;;;;;;3.53;1.08;;;;;;;24.73;46.40;100590.22;5576490;31;32698;-69
2022/05/13 07:47:42;;;;;;;4.72;1.20;;;;;;;25.90;44.01;100586.59;5590413;31;34567;-69
2022/05/13 07:50:45;;;;;;;3.60;1.10;;;;;;;26.32;42.86;100581.09;5589700;31;34040;-68
2022/05/13 07:53:48;;;;;;;2.47;1.20;;;;;;;25.49;44.09;100588.19;5589997;31;34046;-67
2022/05/13 07:56:50;;;;;;;4.05;1.17;;;;;;;25.08;46.43;100596.00;5589063;31;32408;-67
2022/05/13 08:03:17;;;;;;;2.95;1.20;;;;;;;25.11;45.75;100594.69;5588986;31;32693;-67
2022/05/13 08:06:20;;;;;;;3.97;1.40;;;;;;;25.29;46.05;100598.91;5590694;31;34060;-67
2022/05/13 08:09:35;;;;;;;5.18;1.37;;;;;;;25.67;45.19;100597.84;5589024;31;33658;-68
2022/05/13 08:12:52;;;;;;;1.73;1.02;;;;;;;25.66;45.84;100599.75;5589192;31;32739;-68
2022/05/13 08:16:06;;;;;;;5.32;1.30;;;;;;;25.17;47.08;100611.84;5589364;31;32867;-67
2022/05/13 08:19:08;;;;;;;5.03;1.02;;;;;;;23.82;50.65;100610.72;5589444;31;33256;-67
2022/05/13 08:22:11;;;;;;;2.85;1.50;;;;;;;23.46;52.28;100613.97;5589555;31;34642;-68
2022/05/13 08:25:14;;;;;;;2.85;1.50;;;;;;;23.51;52.65;100617.59;5588968;31;32589;-67
2022/05/13 08:28:20;;;;;;;1.17;0.95;;;;;;;23.86;51.92;100619.22;5589903;31;34098;-68
2022/05/13 08:31:22;;;;;;;3.47;1.00;;;;;;;23.36;53.16;100623.56;5590377;31;34414;-66
2022/05/13 08:34:25;;;;;;;5.53;1.37;;;;;;;23.05;53.20;100629.50;5575847;31;33683;-68
2022/05/13 08:37:29;;;;;;;2.50;1.12;;;;;;;23.30;52.98;100629.12;5576562;31;33431;-67
2022/05/13 08:40:51;;;;;;;3.35;1.37;;;;;;;22.89;53.85;100625.72;5589372;31;33627;-68
2022/05/13 08:44:00;;;;;;;2.97;1.20;;;;;;;22.81;54.86;100628.78;5588932;31;33649;-67
2022/05/13 08:47:09;;;;;;;6.07;1.48;;;;;;;22.90;54.32;100630.03;5588890;31;34195;-67
2022/05/13 08:50:40;;;;;;;1.65;1.05;;;;;;;23.21;54.00;100620.59;5588584;31;33963;-68
2022/05/13 08:53:53;;;;;;;6.55;1.30;;;;;;;23.39;53.47;100625.75;5589891;31;34065;-68
2022/05/13 08:57:02;;;;;;;2.03;1.17;;;;;;;24.32;51.59;100628.78;5589010;31;32519;-68
2022/05/13 09:00:15;;;;;;;2.08;1.20;;;;;;;25.25;49.23;100631.19;5589758;31;34714;-68
2022/05/13 09:03:38;;;;;;;2.33;1.20;;;;;;;26.36;46.20;100623.00;5589855;31;34114;-68
2022/05/13 09:06:48;;;;;;;1.65;1.10;;;;;;;27.05;45.52;100617.25;5589216;31;33975;-68
2022/05/13 09:09:55;;;;;;;1.58;1.40;;;;;;;26.56;45.94;100622.28;5590257;31;34319;-69
2022/05/13 09:13:10;;;;;;;1.23;1.00;;;;;;;25.55;47.42;100610.81;5589489;31;35281;-69
2022/05/13 09:16:16;;;;;;;5.75;1.17;;;;;;;26.37;45.93;100611.03;5589980;31;34461;-68
2022/05/13 09:20:00;;;;;;;3.10;1.17;;;;;;;26.81;45.91;100622.34;5588671;31;32606;-67
2022/05/13 09:23:11;;;;;;;1.62;1.00;;;;;;;24.59;50.25;100616.91;5571012;31;32550;-68
2022/05/13 09:26:19;;;;;;;1.40;1.12;;;;;;;25.06;49.79;100609.03;5589386;31;33986;-66
2022/05/13 09:29:21;;;;;;;1.25;1.10;;;;;;;24.77;49.42;100613.06;5589728;31;34685;-68
2022/05/13 09:32:27;;;;;;;2.28;1.10;;;;;;;23.59;52.78;100613.63;5588700;31;34605;-65
2022/05/13 09:35:39;;;;;;;1.42;1.05;;;;;;;23.04;54.63;100611.62;5589346;31;34639;-67
2022/05/13 09:38:47;;;;;;;5.10;1.90;;;;;;;23.57;54.04;100608.50;5588437;31;32575;-66
2022/05/13 09:41:52;;;;;;;3.72;1.60;;;;;;;23.27;55.70;100616.91;5589137;31;33708;-66
2022/05/13 09:45:22;;;;;;;1.77;1.23;;;;;;;23.22;55.94;100622.22;5589995;31;34122;-66
2022/05/13 09:48:24;;;;;;;3.28;1.48;;;;;;;22.77;57.77;100624.94;5576460;31;32407;-68
2022/05/13 09:51:37;;;;;;;3.50;1.30;;;;;;;23.47;56.17;100623.75;5589755;31;34830;-67
2022/05/13 09:54:42;;;;;;;2.60;1.40;;;;;;;23.08;58.00;100628.19;5588809;31;33203;-67
2022/05/13 09:57:49;;;;;;;3.80;1.30;;;;;;;23.04;58.06;100625.19;5589432;31;33946;-67
2022/05/13 10:00:57;;;;;;;2.42;1.37;;;;;;;23.72;56.90;100622.25;5589502;31;33932;-68
2022/05/13 10:04:13;;;;;;;2.30;1.42;;;;;;;25.75;50.65;100622.66;5589520;31;33902;-69
2022/05/13 10:07:17;;;;;;;3.05;1.30;;;;;;;25.03;52.88;100623.09;5588459;31;32868;-66
2022/05/13 10:14:06;;;;;;;3.03;1.58;;;;;;;23.70;57.20;100618.97;5588330;31;33489;-69
2022/05/13 10:17:18;;;;;;;4.65;1.42;;;;;;;26.39;48.91;100609.69;5588719;31;33281;-68
2022/05/13 10:20:36;;;;;;;1.65;1.30;;;;;;;26.34;49.11;100623.25;5588620;31;34702;-67
2022/05/13 10:24:02;;;;;;;1.42;1.25;;;;;;;24.58;54.02;100617.19;5588511;31;32556;-67
2022/05/13 10:27:09;;;;;;;2.15;1.45;;;;;;;24.43;54.81;100625.97;5551563;31;163887;-67
2022/05/13 10:30:26;;;;;;;3.72;1.60;;;;;;;23.80;57.54;100616.41;5588991;31;34315;-68
2022/05/13 10:33:33;;;;;;;1.67;1.30;;;;;;;24.08;57.61;100604.59;5588057;31;33263;-67
2022/05/13 10:36:47;;;;;;;3.70;1.60;;;;;;;25.75;52.73;100609.06;5588913;31;34584;-68
2022/05/13 10:40:01;;;;;;;3.03;1.40;;;;;;;24.25;57.13;100607.31;5588073;31;33544;-69
2022/05/13 10:43:13;;;;;;;2.10;1.62;;;;;;;24.91;55.56;100599.94;5588384;31;33006;-68
2022/05/13 10:46:24;;;;;;;2.60;1.58;;;;;;;25.65;53.10;100602.75;5588065;31;33961;-67
2022/05/13 10:49:47;;;;;;;2.70;1.35;;;;;;;26.07;51.29;100594.56;5587959;31;34482;-70
2022/05/13 10:53:02;;;;;;;3.10;1.10;;;;;;;26.30;49.49;100591.41;5587940;31;32424;-69
2022/05/13 10:56:19;;;;;;;2.90;1.20;;;;;;;26.43;48.62;100592.84;5587646;31;34656;-68
2022/05/13 11:00:00;;;;;;;3.17;1.30;;;;;;;25.59;50.69;100591.03;5587639;31;34146;-68
2022/05/13 11:03:30;;;;;;;2.25;1.60;;;;;;;25.09;52.75;100597.66;5587369;31;32537;-68
2022/05/13 11:06:32;;;;;;;2.62;1.40;;;;;;;25.21;51.81;100596.69;5587726;31;32341;-68
2022/05/13 11:10:08;;;;;;;4.18;1.20;;;;;;;26.16;48.33;100590.25;5587142;31;32580;-68
2022/05/13 11:13:52;;;;;;;1.73;1.30;;;;;;;25.86;48.04;100591.72;5588163;31;35226;-68
2022/05/13 11:17:20;;;;;;;1.92;1.20;;;;;;;24.83;48.90;100590.34;5580550;31;32506;-69
2022/05/13 11:20:38;;;;;;;2.35;1.50;;;;;;;28.50;41.64;100587.28;5590562;31;34029;-68
2022/05/13 11:27:46;;;;;;;2.25;1.00;;;;;;;32.74;32.34;100572.34;5589397;31;33202;-70
2022/05/13 11:31:09;;;;;;;2.97;1.00;;;;;;;30.63;35.04;100570.50;5589175;31;33121;-68
2022/05/13 11:34:23;;;;;;;3.17;1.40;;;;;;;29.63;37.80;100564.28;5589903;31;33887;-68
2022/05/13 11:37:29;;;;;;;2.67;1.40;;;;;;;27.29;42.81;100566.59;5590669;31;33950;-69
2022/05/13 11:40:48;;;;;;;3.10;1.33;;;;;;;27.48;43.24;100569.56;5590091;31;33751;-68
2022/05/13 11:44:14;;;;;;;3.83;1.30;;;;;;;25.98;47.05;100560.81;5589252;31;32454;-68
2022/05/13 11:47:42;;;;;;;2.05;1.00;;;;;;;25.48;48.31;100560.22;5589558;31;33876;-69
2022/05/13 11:50:46;;;;;;;5.25;2.60;;;;;;;25.61;47.42;100563.59;5590049;31;32672;-68
2022/05/13 11:54:00;;;;;;;1.65;1.23;;;;;;;24.72;50.98;100561.44;5590029;31;33935;-68
2022/05/13 11:57:16;;;;;;;3.97;1.20;;;;;;;24.31;52.04;100567.50;5590008;31;32589;-68
2022/05/13 12:00:23;;;;;;;1.83;1.30;;;;;;;24.31;50.85;100565.59;5589698;31;32766;-67
2022/05/13 12:03:25;;;;;;;1.25;1.10;;;;;;;23.88;51.10;100566.37;5589664;31;32572;-67
2022/05/13 12:06:51;;;;;;;1.52;1.00;;;;;;;24.03;50.55;100560.34;5590522;31;34638;-67
2022/05/13 12:09:56;;;;;;;2.53;1.10;;;;;;;23.93;51.42;100565.63;5589866;31;33497;-67
2022/05/13 12:13:05;;;;;;;1.60;1.10;;;;;;;23.00;52.32;100579.87;5576370;31;33460;-67
2022/05/13 12:16:28;;;;;;;4.10;1.30;;;;;;;23.28;50.16;100579.84;5590396;31;34609;-66
2022/05/13 12:20:00;;;;;;;3.20;1.10;;;;;;;23.08;50.88;100572.19;5589311;31;32548;-66
2022/05/13 12:23:17;;;;;;;1.98;1.20;;;;;;;23.02;51.74;100584.00;5589740;31;33669;-67
2022/05/13 12:26:44;;;;;;;2.25;0.95;;;;;;;23.32;51.69;100572.84;5588704;31;33513;-66
2022/05/13 12:30:09;;;;;;;1.25;1.00;;;;;;;22.81;50.50;100582.81;5590295;31;34685;-67
2022/05/13 12:33:25;;;;;;;2.10;1.10;;;;;;;22.62;51.17;100575.94;5589556;31;32671;-67
2022/05/13 12:39:51;;;;;;;3.87;1.00;;;;;;;22.54;48.93;100565.50;5590385;31;34330;-67
2022/05/13 12:43:13;;;;;;;3.78;1.17;;;;;;;22.51;50.46;100566.78;5589988;31;34075;-65
2022/05/13 12:46:41;;;;;;;2.50;1.10;;;;;;;22.47;49.26;100551.28;5588806;31;33026;-66
2022/05/13 12:49:55;;;;;;;3.60;0.93;;;;;;;22.77;47.68;100549.19;5590397;31;34313;-67
2022/05/13 12:52:58;;;;;;;2.37;0.90;;;;;;;23.06;44.79;100541.00;5589012;31;34204;-67
2022/05/13 12:56:44;;;;;;;2.95;1.20;;;;;;;23.21;45.31;100544.78;5589265;31;32325;-66
2022/05/13 12:59:52;;;;;;;2.35;0.90;;;;;;;22.72;45.96;100543.69;5589317;31;32369;-68
2022/05/13 13:02:55;;;;;;;2.25;1.00;;;;;;;22.48;48.07;100551.06;5588979;31;34095;-67
2022/05/13 13:06:16;;;;;;;1.40;1.00;;;;;;;22.56;48.24;100547.12;5588979;31;32466;-67
2022/05/13 13:09:32;;;;;;;5.07;1.08;;;;;;;22.71;48.66;100552.03;5588503;31;33241;-66
2022/05/13 13:12:53;;;;;;;1.27;1.00;;;;;;;23.22;47.76;100551.84;5588815;31;34087;-66
2022/05/13 13:16:15;;;;;;;7.03;1.35;;;;;;;22.92;48.87;100545.94;5589341;31;32494;-66
2022/05/13 13:19:26;;;;;;;3.87;1.00;;;;;;;22.61;50.28;100543.75;5575964;31;33697;-67
2022/05/13 13:22:34;;;;;;;3.87;1.00;;;;;;;22.19;52.29;100540.47;5589856;31;35298;-67
2022/05/13 13:25:42;;;;;;;1.75;1.10;;;;;;;21.91;53.29;100533.94;5588775;31;33302;-67
2022/05/13 13:28:52;;;;;;;2.22;1.12;;;;;;;21.80;54.57;100545.59;5588603;31;33413;-67
2022/05/13 13:31:59;;;;;;;2.05;1.08;;;;;;;21.77;53.83;100535.28;5588644;31;33015;-67
2022/05/13 13:35:03;;;;;;;2.58;1.20;;;;;;;21.82;53.31;100521.06;5588573;31;35247;-66
2022/05/13 13:38:08;;;;;;;1.23;1.00;;;;;;;21.73;54.69;100511.69;5588693;31;34343;-68
2022/05/13 13:41:35;;;;;;;6.95;1.10;;;;;;;21.87;54.62;100502.25;5589432;31;34776;-67
2022/05/13 13:44:39;;;;;;;1.98;1.00;;;;;;;22.47;53.47;100502.63;5589207;31;33790;-66
2022/05/13 13:47:46;;;;;;;1.73;1.30;;;;;;;22.50;52.73;100492.19;5589247;31;34018;-66
2022/05/13 13:50:53;;;;;;;1.65;0.90;;;;;;;22.28;54.21;100490.38;5588319;31;33573;-66
2022/05/13 13:54:00;;;;;;;1.60;0.80;;;;;;;22.19;54.92;100486.44;5575188;31;33033;-66
2022/05/13 13:57:20;;;;;;;3.40;0.80;;;;;;;22.03;55.20;100485.31;5589138;31;34325;-67
2022/05/13 14:00:36;;;;;;;4.22;0.95;;;;;;;21.35;56.89;100485.19;5588125;31;32440;-66
2022/05/13 14:03:38;;;;;;;8.30;1.20;;;;;;;21.07;57.80;100470.47;5588274;31;33119;-66
2022/05/13 14:06:44;;;;;;;0.70;0.70;;;;;;;21.23;57.54;100455.50;5588663;31;34833;-68
2022/05/13 14:09:47;;;;;;;4.72;0.93;;;;;;;21.36;57.40;100462.53;5588295;31;32290;-66
2022/05/13 14:12:50;;;;;;;3.55;1.23;;;;;;;20.99;61.82;100484.31;5589045;31;35532;-67
2022/05/13 14:16:04;;;;;;;2.75;1.10;;;;;;;20.17;68.29;100480.56;5588544;31;33005;-66
2022/05/13 14:19:11;;;;;;;2.92;1.17;;;;;;;19.90;74.79;100466.63;5588531;31;32646;-67
2022/05/13 14:22:15;;;;;;;1.23;1.00;;;;;;;20.22;71.26;100478.03;5588445;31;32434;-67
2022/05/13 14:25:17;;;;;;;2.20;1.25;;;;;;;20.59;70.07;100480.63;5588144;31;35560;-67
2022/05/13 14:28:27;;;;;;;4.85;1.40;;;;;;;21.25;67.41;100472.28;5587919;31;34298;-68
2022/05/13 14:31:34;;;;;;;3.12;1.30;;;;;;;21.71;65.62;100471.41;5588336;31;34306;-66
2022/05/13 14:34:39;;;;;;;1.80;1.20;;;;;;;22.12;60.98;100454.16;5587884;31;32477;-66
2022/05/13 14:38:06;;;;;;;0.90;0.80;;;;;;;21.66;60.54;100447.00;5588255;31;32352;-67
2022/05/13 14:41:10;;;;;;;2.03;1.37;;;;;;;21.67;60.33;100422.47;5574862;31;33185;-67
2022/05/13 14:44:15;;;;;;;3.20;1.02;;;;;;;22.20;59.52;100396.19;5587537;31;32567;-67
2022/05/13 14:47:32;;;;;;;1.10;0.93;;;;;;;23.57;55.96;100393.72;5588088;31;33894;-68
2022/05/13 14:50:37;;;;;;;1.65;0.90;;;;;;;24.52;52.79;100391.19;5587824;31;33840;-67
2022/05/13 14:53:50;;;;;;;2.92;1.00;;;;;;;24.08;51.12;100392.38;5587656;31;34634;-67
2022/05/13 14:57:02;;;;;;;2.97;0.98;;;;;;;24.36;51.56;100396.72;5587306;31;33193;-68
2022/05/13 15:00:15;;;;;;;1.37;0.90;;;;;;;24.42;50.79;100396.53;5574419;31;32976;-67
2022/05/13 15:03:34;;;;;;;1.73;0.85;;;;;;;23.73;52.12;100409.06;5587764;31;33296;-68